createdAt,value
2023-05-17T00:02:13.484Z,7.60
2023-05-17T00:04:40.954Z,7.50
2023-05-17T00:07:07.621Z,7.50
2023-05-17T00:09:34.954Z,7.50
2023-05-17T00:12:01.874Z,7.50
2023-05-17T00:14:29.399Z,7.40
2023-05-17T00:16:56.020Z,7.40
2023-05-17T00:19:23.482Z,7.40
2023-05-17T00:21:50.549Z,7.40
2023-05-17T00:24:17.809Z,7.30
2023-05-17T00:26:44.458Z,7.40
2023-05-17T00:29:12.026Z,7.40
2023-05-17T00:31:38.704Z,7.40
2023-05-17T00:34:06.146Z,7.40
2023-05-17T00:36:32.861Z,7.30
2023-05-17T00:39:01.864Z,7.30
2023-05-17T00:41:29.145Z,7.30
2023-05-17T00:43:56.017Z,7.30
2023-05-17T00:46:23.395Z,7.30
2023-05-17T00:48:50.337Z,7.30
2023-05-17T00:51:21.132Z,7.30
2023-05-17T00:53:48.192Z,7.20
2023-05-17T00:56:15.737Z,7.30
2023-05-17T00:58:42.766Z,7.30
2023-05-17T01:01:10.234Z,7.20
2023-05-17T01:03:37.230Z,7.20
2023-05-17T01:06:06.396Z,7.10
2023-05-17T01:08:35.348Z,7.10
2023-05-17T01:11:14.921Z,7.10
2023-05-17T01:13:51.955Z,7.10
2023-05-17T01:16:25.728Z,7.10
2023-05-17T01:19:13.619Z,7.10
2023-05-17T01:22:10.267Z,7.00
2023-05-17T01:24:49.974Z,6.90
2023-05-17T01:27:19.204Z,6.90
2023-05-17T01:29:47.291Z,6.90
2023-05-17T01:32:16.454Z,6.90
2023-05-17T01:34:43.629Z,6.80
2023-05-17T01:37:11.176Z,6.80
2023-05-17T01:39:37.928Z,6.70
2023-05-17T01:42:29.553Z,6.70
2023-05-17T01:45:06.042Z,6.70
2023-05-17T01:47:57.965Z,6.60
2023-05-17T01:50:27.418Z,6.60
2023-05-17T01:52:59.423Z,6.60
2023-05-17T01:55:34.633Z,6.50
2023-05-17T01:58:06.064Z,6.50
2023-05-17T02:00:33.800Z,6.60
2023-05-17T02:03:12.784Z,6.50
2023-05-17T02:05:39.796Z,6.50
2023-05-17T02:08:07.109Z,6.50
2023-05-17T02:10:35.143Z,6.40
2023-05-17T02:13:03.245Z,6.40
2023-05-17T02:15:30.854Z,6.40
2023-05-17T02:17:59.939Z,6.40
2023-05-17T02:20:26.742Z,6.40
2023-05-17T02:22:53.715Z,6.40
2023-05-17T02:25:20.499Z,6.40
2023-05-17T02:27:47.836Z,6.50
2023-05-17T02:30:18.084Z,6.50
2023-05-17T02:32:45.869Z,6.50
2023-05-17T02:35:14.089Z,6.50
2023-05-17T02:37:41.650Z,6.40
2023-05-17T02:40:09.718Z,6.40
2023-05-17T02:42:37.423Z,6.40
2023-05-17T02:45:04.372Z,6.40
2023-05-17T02:47:31.708Z,6.30
2023-05-17T02:49:58.783Z,6.30
2023-05-17T02:52:26.195Z,6.30
2023-05-17T02:54:53.147Z,6.30
2023-05-17T02:57:20.496Z,6.30
2023-05-17T02:59:47.312Z,6.20
2023-05-17T03:02:14.984Z,6.20
2023-05-17T03:04:41.785Z,6.20
2023-05-17T03:07:09.322Z,6.30
2023-05-17T03:09:37.249Z,6.30
2023-05-17T03:12:05.269Z,6.20
2023-05-17T03:14:34.076Z,6.20
2023-05-17T03:17:02.064Z,6.20
2023-05-17T03:19:29.564Z,6.20
2023-05-17T03:21:56.790Z,6.20
2023-05-17T03:24:24.164Z,6.10
2023-05-17T03:26:51.093Z,6.10
2023-05-17T03:29:18.386Z,6.20
2023-05-17T03:31:45.323Z,6.20
2023-05-17T03:34:13.301Z,6.20
2023-05-17T03:36:40.647Z,6.20
2023-05-17T03:39:09.174Z,6.20
2023-05-17T03:41:38.496Z,6.30
2023-05-17T03:44:06.002Z,6.40
2023-05-17T03:46:33.784Z,6.50
2023-05-17T03:49:01.196Z,6.60
2023-05-17T03:51:28.717Z,6.70
2023-05-17T03:54:00.842Z,6.80
2023-05-17T03:56:28.977Z,6.90
2023-05-17T03:58:56.308Z,7.00
2023-05-17T04:01:23.574Z,7.10
2023-05-17T04:03:50.905Z,7.20
2023-05-17T04:06:19.538Z,7.30
2023-05-17T04:08:47.088Z,7.30
2023-05-17T04:11:14.268Z,7.40
2023-05-17T04:13:42.872Z,7.40
2023-05-17T04:16:10.509Z,7.50
2023-05-17T04:18:41.348Z,7.50
2023-05-17T04:21:09.074Z,7.60
2023-05-17T04:23:37.177Z,7.70
2023-05-17T04:26:05.924Z,7.70
2023-05-17T04:28:36.010Z,7.70
2023-05-17T04:31:08.443Z,7.80
2023-05-17T04:33:37.169Z,7.90
2023-05-17T04:36:05.478Z,7.90
2023-05-17T04:38:33.431Z,8.00
2023-05-17T04:41:07.197Z,8.10
2023-05-17T04:43:37.085Z,8.30
2023-05-17T04:46:06.970Z,8.50
2023-05-17T04:48:35.649Z,8.80
2023-05-17T04:51:06.751Z,8.90
2023-05-17T04:53:34.645Z,8.90
2023-05-17T04:56:07.253Z,9.00
2023-05-17T04:58:35.741Z,8.90
2023-05-17T05:01:05.410Z,9.10
2023-05-17T05:03:33.391Z,9.30
2023-05-17T05:06:00.597Z,9.50
2023-05-17T05:08:28.830Z,9.80
2023-05-17T05:10:56.613Z,10.10
2023-05-17T05:13:25.305Z,10.60
2023-05-17T05:15:53.590Z,11.80
2023-05-17T05:18:21.079Z,13.00
2023-05-17T05:20:49.264Z,13.90
2023-05-17T05:23:18.886Z,14.90
2023-05-17T05:25:47.906Z,15.50
2023-05-17T05:28:15.580Z,15.80
2023-05-17T05:30:42.606Z,16.10
2023-05-17T05:33:11.350Z,16.70
2023-05-17T05:35:38.207Z,17.40
2023-05-17T05:38:05.599Z,18.00
2023-05-17T05:40:33.006Z,18.80
2023-05-17T05:43:00.498Z,19.00
2023-05-17T05:45:27.219Z,18.50
2023-05-17T05:47:58.847Z,17.90
2023-05-17T05:50:26.064Z,18.00
2023-05-17T05:53:14.522Z,17.70
2023-05-17T05:55:49.630Z,18.20
2023-05-17T05:58:17.376Z,18.10
2023-05-17T06:00:44.734Z,18.00
2023-05-17T06:03:12.082Z,17.60
2023-05-17T06:05:40.332Z,17.70
2023-05-17T06:08:07.904Z,18.10
2023-05-17T06:10:34.725Z,18.80
2023-05-17T06:13:02.009Z,19.90
2023-05-17T06:15:28.911Z,20.40
2023-05-17T06:17:56.297Z,19.30
2023-05-17T06:20:23.159Z,18.90
2023-05-17T06:22:50.497Z,20.40
2023-05-17T06:25:17.250Z,21.30
2023-05-17T06:27:44.505Z,19.20
2023-05-17T06:30:11.759Z,18.40
2023-05-17T06:32:39.071Z,18.50
2023-05-17T06:35:06.905Z,20.20
2023-05-17T06:37:34.277Z,21.70
2023-05-17T06:40:16.087Z,22.10
2023-05-17T06:42:44.279Z,23.80
2023-05-17T06:45:12.630Z,24.50
2023-05-17T06:47:40.168Z,25.10
2023-05-17T06:50:08.521Z,25.70
2023-05-17T06:52:36.596Z,25.70
2023-05-17T06:55:03.660Z,24.60
2023-05-17T06:57:31.178Z,24.30
2023-05-17T07:00:00.399Z,23.90
2023-05-17T07:02:27.770Z,23.80
2023-05-17T07:04:54.470Z,24.80
2023-05-17T07:07:25.488Z,25.30
2023-05-17T07:09:52.115Z,25.60
2023-05-17T07:12:19.378Z,26.00
2023-05-17T07:14:46.019Z,26.00
2023-05-17T07:17:13.380Z,25.30
2023-05-17T07:19:40.261Z,24.90
2023-05-17T07:22:07.821Z,23.70
2023-05-17T07:24:35.762Z,23.20
2023-05-17T07:27:03.114Z,22.80
2023-05-17T07:29:29.816Z,21.50
2023-05-17T07:31:57.176Z,22.20
2023-05-17T07:34:24.031Z,20.80
2023-05-17T07:36:51.478Z,19.20
2023-05-17T07:39:18.405Z,18.70
2023-05-17T07:41:45.801Z,19.00
2023-05-17T07:44:12.720Z,17.60
2023-05-17T07:46:40.156Z,16.20
2023-05-17T07:49:07.004Z,15.60
2023-05-17T07:51:35.492Z,16.10
2023-05-17T07:54:03.189Z,17.40
2023-05-17T07:56:31.116Z,16.60
2023-05-17T07:58:57.983Z,16.10
2023-05-17T08:01:25.409Z,15.70
2023-05-17T08:03:52.046Z,15.10
2023-05-17T08:06:19.456Z,14.60
2023-05-17T08:08:46.446Z,14.30
2023-05-17T08:11:14.935Z,14.60
2023-05-17T08:13:41.620Z,14.50
2023-05-17T08:16:14.171Z,14.50
2023-05-17T08:18:43.277Z,14.40
2023-05-17T08:21:11.700Z,15.20
2023-05-17T08:23:40.277Z,15.10
2023-05-17T08:26:07.693Z,15.80
2023-05-17T08:28:34.699Z,15.80
2023-05-17T08:31:02.275Z,15.40
2023-05-17T08:33:28.954Z,15.90
2023-05-17T08:35:58.076Z,15.90
2023-05-17T08:38:24.799Z,15.50
2023-05-17T08:40:55.962Z,14.90
2023-05-17T08:43:25.248Z,14.40
2023-05-17T08:45:58.160Z,14.20
2023-05-17T08:48:27.362Z,14.30
2023-05-17T08:50:56.751Z,14.00
2023-05-17T08:53:24.326Z,13.80
2023-05-17T08:55:53.384Z,13.60
2023-05-17T08:58:23.233Z,13.80
2023-05-17T09:00:52.091Z,14.10
2023-05-17T09:03:19.834Z,14.50
2023-05-17T09:05:47.298Z,14.60
2023-05-17T09:08:14.241Z,14.30
2023-05-17T09:10:42.601Z,14.30
2023-05-17T09:13:12.891Z,14.30
2023-05-17T09:15:44.104Z,14.60
2023-05-17T09:18:16.277Z,14.70
2023-05-17T09:20:52.671Z,14.50
2023-05-17T09:23:21.497Z,14.10
2023-05-17T09:25:50.386Z,13.90
2023-05-17T09:28:22.419Z,13.70
2023-05-17T09:30:49.946Z,13.90
2023-05-17T09:33:20.380Z,13.70
2023-05-17T09:35:47.616Z,13.70
2023-05-17T09:38:14.324Z,14.10
2023-05-17T09:40:43.813Z,14.70
2023-05-17T09:43:11.651Z,15.30
2023-05-17T09:45:39.233Z,15.30
2023-05-17T09:48:12.275Z,15.30
2023-05-17T09:50:50.567Z,15.20
2023-05-17T09:53:28.515Z,15.10
2023-05-17T09:55:58.757Z,15.00
2023-05-17T09:58:27.313Z,14.90
2023-05-17T10:01:05.373Z,14.70
2023-05-17T10:03:37.072Z,15.00
2023-05-17T10:06:13.158Z,15.50
2023-05-17T10:08:46.245Z,16.10
2023-05-17T10:11:13.732Z,16.60
2023-05-17T10:13:47.597Z,16.80
2023-05-17T10:16:15.938Z,16.40
2023-05-17T10:18:43.706Z,16.20
2023-05-17T10:21:11.704Z,16.20
2023-05-17T10:23:40.609Z,16.60
2023-05-17T10:26:08.818Z,16.60
2023-05-17T10:28:39.256Z,16.40
2023-05-17T10:31:07.726Z,16.10
2023-05-17T10:33:34.591Z,15.90
2023-05-17T10:36:06.256Z,15.80
2023-05-17T10:38:41.946Z,15.80
2023-05-17T10:41:13.168Z,15.90
2023-05-17T10:43:42.366Z,16.10
2023-05-17T10:46:17.139Z,16.40
2023-05-17T10:48:44.994Z,16.60
2023-05-17T10:51:12.406Z,16.40
2023-05-17T10:54:00.928Z,16.30
2023-05-17T10:56:30.167Z,15.70
2023-05-17T10:59:35.911Z,15.50
2023-05-17T11:02:08.029Z,15.90
2023-05-17T11:04:40.232Z,16.30
2023-05-17T11:07:21.674Z,16.80
2023-05-17T11:10:26.349Z,16.60
2023-05-17T11:12:55.341Z,16.50
2023-05-17T11:15:26.670Z,15.80
2023-05-17T11:17:56.888Z,15.70
2023-05-17T11:20:27.414Z,16.00
2023-05-17T11:22:59.708Z,16.40
2023-05-17T11:25:36.512Z,16.60
2023-05-17T11:28:27.193Z,16.60
2023-05-17T11:31:03.703Z,16.70
2023-05-17T11:33:39.354Z,16.60
2023-05-17T11:36:13.960Z,16.20
2023-05-17T11:38:40.667Z,16.00
2023-05-17T11:43:53.232Z,16.30
2023-05-17T11:46:22.363Z,16.60
2023-05-17T11:48:51.477Z,16.60
2023-05-17T11:51:22.575Z,16.60
2023-05-17T11:53:54.249Z,16.90
2023-05-17T11:56:35.572Z,17.00
2023-05-17T11:59:10.677Z,17.10
2023-05-17T12:01:49.054Z,17.30
2023-05-17T12:04:27.183Z,17.20
2023-05-17T12:06:55.828Z,16.80
2023-05-17T12:09:23.204Z,16.80
2023-05-17T12:11:50.789Z,16.50
2023-05-17T12:14:21.618Z,16.30
2023-05-17T12:16:56.646Z,16.50
2023-05-17T12:19:25.110Z,16.50
2023-05-17T12:21:52.492Z,16.30
2023-05-17T12:24:19.280Z,16.10
2023-05-17T12:26:48.072Z,16.30
2023-05-17T12:29:19.083Z,16.60
2023-05-17T12:31:50.222Z,16.80
2023-05-17T12:34:18.206Z,17.20
2023-05-17T12:36:45.907Z,17.00
2023-05-17T12:39:13.697Z,16.90
2023-05-17T12:41:42.031Z,16.80
2023-05-17T12:46:39.614Z,17.10
2023-05-17T12:49:08.547Z,16.70
2023-05-17T12:51:44.696Z,16.70
2023-05-17T12:54:13.319Z,16.60
2023-05-17T12:56:46.695Z,16.70
2023-05-17T12:59:17.877Z,16.60
2023-05-17T13:01:47.237Z,16.50
2023-05-17T13:04:15.060Z,16.40
2023-05-17T13:06:47.323Z,16.40
2023-05-17T13:09:15.324Z,16.10
2023-05-17T13:11:43.029Z,15.80
2023-05-17T13:14:12.321Z,15.90
2023-05-17T13:16:41.288Z,16.10
2023-05-17T13:19:14.812Z,16.40
2023-05-17T13:21:42.332Z,16.50
2023-05-17T13:24:09.925Z,16.60
2023-05-17T13:26:37.286Z,16.50
2023-05-17T13:29:04.042Z,16.60
2023-05-17T13:31:31.547Z,16.60
2023-05-17T13:33:58.303Z,16.80
2023-05-17T13:36:25.812Z,16.70
2023-05-17T13:38:52.931Z,16.80
2023-05-17T13:41:19.702Z,16.80
2023-05-17T13:43:47.054Z,16.90
2023-05-17T13:46:14.077Z,17.00
2023-05-17T13:48:42.796Z,16.90
2023-05-17T13:51:10.396Z,16.90
2023-05-17T13:53:38.581Z,16.80
2023-05-17T13:56:06.383Z,16.60
2023-05-17T13:58:33.133Z,16.40
2023-05-17T14:01:00.182Z,16.10
2023-05-17T14:03:27.627Z,16.10
2023-05-17T14:05:54.700Z,16.30
2023-05-17T14:08:22.090Z,16.50
2023-05-17T14:10:48.897Z,16.50
2023-05-17T14:13:16.206Z,16.60
2023-05-17T14:15:42.953Z,16.60
2023-05-17T14:18:10.560Z,16.60
2023-05-17T14:20:37.371Z,16.50
2023-05-17T14:23:06.173Z,16.60
2023-05-17T14:25:33.299Z,16.70
2023-05-17T14:28:00.708Z,16.70
2023-05-17T14:30:27.593Z,16.60
2023-05-17T14:32:54.699Z,16.50
2023-05-17T14:35:21.428Z,16.60
2023-05-17T14:37:48.703Z,16.70
2023-05-17T14:40:15.397Z,16.70
2023-05-17T14:42:43.474Z,16.70
2023-05-17T14:45:10.348Z,16.80
2023-05-17T14:47:37.716Z,16.60
2023-05-17T14:50:04.888Z,16.40
2023-05-17T14:52:32.159Z,16.20
2023-05-17T14:54:59.157Z,16.20
2023-05-17T14:57:26.581Z,16.30
2023-05-17T14:59:53.400Z,16.30
2023-05-17T15:02:20.710Z,16.40
2023-05-17T15:04:47.731Z,16.30
2023-05-17T15:07:15.537Z,16.20
2023-05-17T15:09:43.413Z,16.20
2023-05-17T15:12:14.115Z,16.20
2023-05-17T15:14:41.030Z,16.30
2023-05-17T15:17:08.809Z,16.40
2023-05-17T15:19:35.938Z,16.40
2023-05-17T15:22:03.348Z,16.20
2023-05-17T15:24:30.147Z,16.10
2023-05-17T15:26:57.577Z,16.00
2023-05-17T15:29:24.252Z,15.90
2023-05-17T15:31:52.053Z,16.00
2023-05-17T15:34:18.895Z,15.80
2023-05-17T15:36:47.264Z,15.90
2023-05-17T15:39:14.076Z,15.80
2023-05-17T15:41:41.397Z,15.50
2023-05-17T15:44:08.965Z,15.20
2023-05-17T15:46:36.497Z,14.90
2023-05-17T15:49:03.420Z,14.70
2023-05-17T15:51:31.065Z,14.70
2023-05-17T15:53:57.898Z,14.80
2023-05-17T15:56:25.337Z,14.90
2023-05-17T15:58:52.502Z,15.10
2023-05-17T16:01:19.810Z,15.20
2023-05-17T16:03:46.763Z,15.30
2023-05-17T16:06:17.323Z,15.30
2023-05-17T16:08:44.067Z,15.20
2023-05-17T16:11:11.612Z,15.30
2023-05-17T16:13:38.267Z,15.20
2023-05-17T16:16:06.001Z,15.20
2023-05-17T16:18:32.883Z,15.10
2023-05-17T16:21:04.124Z,15.10
2023-05-17T16:23:31.202Z,15.10
2023-05-17T16:25:58.470Z,15.00
2023-05-17T16:28:25.468Z,14.90
2023-05-17T16:30:53.165Z,14.80
2023-05-17T16:33:20.594Z,14.70
2023-05-17T16:35:51.588Z,14.70
2023-05-17T16:38:18.292Z,14.70
2023-05-17T16:40:45.717Z,14.70
2023-05-17T16:43:15.802Z,14.70
2023-05-17T16:45:46.618Z,14.60
2023-05-17T16:48:14.541Z,14.60
2023-05-17T16:50:42.498Z,14.50
2023-05-17T16:53:09.224Z,14.40
2023-05-17T16:55:36.879Z,14.40
2023-05-17T16:58:04.818Z,14.40
2023-05-17T17:00:32.156Z,14.30
2023-05-17T17:02:59.475Z,14.30
2023-05-17T17:05:27.854Z,14.20
2023-05-17T17:07:54.999Z,14.20
2023-05-17T17:10:22.316Z,14.20
2023-05-17T17:12:49.776Z,14.20
2023-05-17T17:15:17.219Z,14.20
2023-05-17T17:17:45.451Z,14.20
2023-05-17T17:20:12.801Z,14.20
2023-05-17T17:22:40.184Z,14.10
2023-05-17T17:25:07.998Z,14.10
2023-05-17T17:27:35.231Z,14.00
2023-05-17T17:30:03.020Z,14.00
2023-05-17T17:32:30.044Z,14.00
2023-05-17T17:34:57.417Z,13.90
2023-05-17T17:37:24.103Z,13.90
2023-05-17T17:39:51.896Z,13.90
2023-05-17T17:42:19.514Z,13.90
2023-05-17T17:44:46.960Z,13.80
2023-05-17T17:47:13.734Z,13.80
2023-05-17T17:49:41.308Z,13.70
2023-05-17T17:52:08.002Z,13.70
2023-05-17T17:54:35.483Z,13.70
2023-05-17T17:57:03.024Z,13.60
2023-05-17T17:59:33.432Z,13.60
2023-05-17T18:02:00.056Z,13.50
2023-05-17T18:04:27.457Z,13.40
2023-05-17T18:06:54.845Z,13.40
2023-05-17T18:09:23.488Z,13.40
2023-05-17T18:11:50.254Z,13.30
2023-05-17T18:14:17.863Z,13.30
2023-05-17T18:16:44.746Z,13.30
2023-05-17T18:19:12.116Z,13.20
2023-05-17T18:21:38.839Z,13.20
2023-05-17T18:24:06.584Z,13.20
2023-05-17T18:26:33.228Z,13.10
2023-05-17T18:29:00.821Z,13.20
2023-05-17T18:31:27.458Z,13.10
2023-05-17T18:33:56.988Z,13.10
2023-05-17T18:36:24.154Z,13.00
2023-05-17T18:38:52.626Z,12.90
2023-05-17T18:41:19.342Z,12.90
2023-05-17T18:43:46.338Z,12.80
2023-05-17T18:46:13.057Z,12.80
2023-05-17T18:48:41.063Z,12.70
2023-05-17T18:51:07.984Z,12.70
2023-05-17T18:53:41.793Z,12.60
2023-05-17T18:56:08.568Z,12.50
2023-05-17T18:58:35.917Z,12.50
2023-05-17T19:01:02.757Z,12.40
2023-05-17T19:03:30.377Z,12.30
2023-05-17T19:05:57.081Z,12.30
2023-05-17T19:08:24.574Z,12.30
2023-05-17T19:10:51.256Z,12.20
2023-05-17T19:13:18.514Z,12.10
2023-05-17T19:15:45.182Z,12.10
2023-05-17T19:18:12.504Z,12.10
2023-05-17T19:20:39.164Z,12.00
2023-05-17T19:23:06.682Z,12.00
2023-05-17T19:25:34.097Z,11.90
2023-05-17T19:28:00.872Z,11.80
2023-05-17T19:30:29.193Z,11.70
2023-05-17T19:32:57.105Z,11.70
2023-05-17T19:35:24.504Z,11.60
2023-05-17T19:37:51.184Z,11.50
2023-05-17T19:40:22.458Z,11.40
2023-05-17T19:42:49.697Z,11.40
2023-05-17T19:45:16.778Z,11.30
2023-05-17T19:47:43.711Z,11.20
2023-05-17T19:50:11.882Z,11.10
2023-05-17T19:52:39.020Z,11.10
2023-05-17T19:55:06.825Z,11.10
2023-05-17T19:57:33.598Z,11.10
2023-05-17T20:00:00.688Z,11.00
2023-05-17T20:02:27.472Z,11.00
2023-05-17T20:04:54.616Z,10.90
2023-05-17T20:07:25.474Z,10.90
2023-05-17T20:09:53.819Z,10.80
2023-05-17T20:12:20.808Z,10.80
2023-05-17T20:14:47.964Z,10.80
2023-05-17T20:17:14.743Z,10.80
2023-05-17T20:19:42.139Z,10.70
2023-05-17T20:22:08.866Z,10.60
2023-05-17T20:24:36.214Z,10.60
2023-05-17T20:27:03.506Z,10.50
2023-05-17T20:29:30.689Z,10.50
2023-05-17T20:31:58.185Z,10.50
2023-05-17T20:34:28.515Z,10.40
2023-05-17T20:36:56.232Z,10.40
2023-05-17T20:39:28.045Z,10.40
2023-05-17T20:41:55.350Z,10.40
2023-05-17T20:44:23.932Z,10.40
2023-05-17T20:46:51.851Z,10.30
2023-05-17T20:49:19.059Z,10.20
2023-05-17T20:51:46.059Z,10.20
2023-05-17T20:54:13.643Z,10.20
2023-05-17T20:56:40.332Z,10.10
2023-05-17T20:59:07.714Z,10.10
2023-05-17T21:01:35.274Z,10.10
2023-05-17T21:04:02.481Z,10.00
2023-05-17T21:06:32.341Z,9.90
2023-05-17T21:09:02.091Z,9.90
2023-05-17T21:11:29.476Z,9.90
2023-05-17T21:13:59.863Z,9.80
2023-05-17T21:16:26.813Z,9.80
2023-05-17T21:18:53.594Z,9.80
2023-05-17T21:21:21.069Z,9.70
2023-05-17T21:23:48.632Z,9.60
2023-05-17T21:26:15.539Z,9.60
2023-05-17T21:28:42.203Z,9.60
2023-05-17T21:31:08.943Z,9.60
2023-05-17T21:33:36.248Z,9.50
2023-05-17T21:36:03.199Z,9.50
2023-05-17T21:38:30.246Z,9.50
2023-05-17T21:40:56.953Z,9.50
2023-05-17T21:43:23.650Z,9.40
2023-05-17T21:45:50.306Z,9.40
2023-05-17T21:48:17.663Z,9.40
2023-05-17T21:50:44.785Z,9.30
2023-05-17T21:53:12.066Z,9.20
2023-05-17T21:55:56.250Z,9.20
2023-05-17T21:58:27.046Z,9.20
2023-05-17T22:00:53.901Z,9.10
2023-05-17T22:03:21.581Z,9.10
2023-05-17T22:05:48.603Z,9.00
2023-05-17T22:08:15.605Z,9.00
2023-05-17T22:10:42.298Z,8.90
2023-05-17T22:13:12.460Z,8.90
2023-05-17T22:15:41.274Z,8.80
2023-05-17T22:18:09.248Z,8.80
2023-05-17T22:20:35.914Z,8.70
2023-05-17T22:23:03.376Z,8.70
2023-05-17T22:25:30.124Z,8.70
2023-05-17T22:27:57.466Z,8.60
2023-05-17T22:30:24.137Z,8.60
2023-05-17T22:32:54.889Z,8.60
2023-05-17T22:35:21.683Z,8.50
2023-05-17T22:37:50.318Z,8.50
2023-05-17T22:40:17.273Z,8.50
2023-05-17T22:42:45.158Z,8.50
2023-05-17T22:45:14.623Z,8.50
2023-05-17T22:47:43.033Z,8.40
2023-05-17T22:50:14.432Z,8.40
2023-05-17T22:52:42.879Z,8.30
2023-05-17T22:55:10.613Z,8.30
2023-05-17T22:57:38.357Z,8.20
2023-05-17T23:00:06.205Z,8.10
2023-05-17T23:02:33.650Z,8.10
2023-05-17T23:05:03.585Z,8.10
2023-05-17T23:07:37.424Z,8.10
2023-05-17T23:10:06.664Z,8.00
2023-05-17T23:12:35.155Z,8.00
2023-05-17T23:15:06.054Z,7.90
2023-05-17T23:17:34.181Z,7.90
2023-05-17T23:20:02.285Z,7.80
2023-05-17T23:22:31.726Z,7.80
2023-05-17T23:24:58.627Z,7.90
2023-05-17T23:27:26.405Z,7.80
2023-05-17T23:29:54.004Z,7.80
2023-05-17T23:32:22.129Z,7.80
2023-05-17T23:34:49.461Z,7.70
2023-05-17T23:37:17.134Z,7.60
2023-05-17T23:39:43.781Z,7.60
2023-05-17T23:42:11.164Z,7.60
2023-05-17T23:44:37.840Z,7.50
2023-05-17T23:47:05.279Z,7.50
2023-05-17T23:49:31.961Z,7.50
2023-05-17T23:51:58.933Z,7.50
2023-05-17T23:54:25.704Z,7.40
2023-05-17T23:56:52.691Z,7.40
2023-05-17T23:59:20.786Z,7.40
